Time;durP1;ratioP1;P1;durP2;ratioP2;P2;SDS_P1;SDS_P2;PMS_P1;PMS_P2;Temp;Humidity;BMP_temperature;BMP_pressure;BME280_temperature;BME280_humidity;BME280_pressure;Samples;Min_cycle;Max_cycle;Signal;HPM_P1;HPM_P2
2021/12/14 00:00:40;;;;;;;23.00;12.32;;;8.30;99.90;;;;;;5061068;28;20039;-79
2021/12/14 00:03:14;;;;;;;16.48;11.60;;;8.30;99.90;;;;;;5082509;28;20096;-80
2021/12/14 00:05:41;;;;;;;13.20;10.38;;;8.30;99.90;;;;;;5049213;28;20121;-80
2021/12/14 00:08:12;;;;;;;15.07;11.68;;;8.30;99.90;;;;;;5065961;28;20081;-79
2021/12/14 00:13:19;;;;;;;16.20;11.85;;;8.30;99.90;;;;;;5074553;28;20415;-80
2021/12/14 00:15:45;;;;;;;14.32;11.77;;;8.30;99.90;;;;;;5040217;28;20161;-80
2021/12/14 00:18:13;;;;;;;17.27;11.60;;;8.30;99.90;;;;;;5053781;28;20061;-80
2021/12/14 00:21:18;;;;;;;18.42;12.40;;;8.30;99.90;;;;;;5072276;28;20113;-80
2021/12/14 00:26:29;;;;;;;16.05;12.15;;;8.30;99.90;;;;;;5089325;28;20152;-80
2021/12/14 00:28:54;;;;;;;17.52;11.10;;;8.10;99.90;;;;;;5055990;28;20618;-80
2021/12/14 00:31:21;;;;;;;14.40;12.30;;;8.20;99.90;;;;;;5059389;28;20042;-80
2021/12/14 00:33:51;;;;;;;17.65;11.52;;;8.20;99.90;;;;;;5064409;28;20050;-80
2021/12/14 00:36:18;;;;;;;17.52;12.10;;;8.30;99.90;;;;;;5084370;28;20372;-80
2021/12/14 00:38:46;;;;;;;15.65;11.60;;;8.20;99.90;;;;;;5076731;28;20047;-80
2021/12/14 00:41:16;;;;;;;19.77;12.82;;;8.30;99.90;;;;;;5085162;28;20091;-80
2021/12/14 00:43:43;;;;;;;19.30;13.10;;;8.20;99.90;;;;;;5087090;28;20036;-80
2021/12/14 00:46:09;;;;;;;14.10;11.60;;;8.20;99.90;;;;;;5084883;28;20079;-80
2021/12/14 00:48:35;;;;;;;14.32;11.65;;;8.20;99.90;;;;;;5040149;28;20104;-80
2021/12/14 00:51:03;;;;;;;20.35;11.68;;;8.30;99.90;;;;;;5065267;28;20060;-80
2021/12/14 00:53:29;;;;;;;14.00;11.65;;;8.20;99.90;;;;;;5063903;28;20042;-80
2021/12/14 00:55:57;;;;;;;19.55;12.68;;;8.10;99.90;;;;;;5072312;28;20046;-80
2021/12/14 00:58:23;;;;;;;15.57;11.27;;;9.30;99.90;;;;;;5059185;28;20034;-80
2021/12/14 01:00:57;;;;;;;14.95;12.10;;;8.20;99.90;;;;;;5051940;28;20472;-80
2021/12/14 01:03:24;;;;;;;15.75;12.30;;;8.20;99.90;;;;;;5061178;28;20050;-81
2021/12/14 01:05:51;;;;;;;15.27;11.68;;;8.20;99.90;;;;;;5061538;28;20035;-80
2021/12/14 01:08:22;;;;;;;19.08;12.15;;;7.70;99.90;;;;;;5076571;28;20539;-80
2021/12/14 01:10:56;;;;;;;16.58;13.15;;;7.80;99.90;;;;;;5069029;28;20071;-80
2021/12/14 01:13:25;;;;;;;13.20;11.82;;;8.20;99.90;;;;;;5070514;28;20570;-81
2021/12/14 01:21:40;;;;;;;17.88;12.70;;;8.20;99.90;;;;;;5077022;28;20047;-80
2021/12/14 01:26:58;;;;;;;15.20;12.32;;;8.20;99.90;;;;;;5029727;28;20566;-80
2021/12/14 01:29:24;;;;;;;18.88;13.27;;;8.10;99.90;;;;;;5048315;28;20045;-81
2021/12/14 01:31:51;;;;;;;17.55;13.45;;;8.10;99.90;;;;;;5099735;28;20032;-81
2021/12/14 01:34:20;;;;;;;17.00;13.10;;;8.10;99.90;;;;;;5065854;28;20115;-80
2021/12/14 01:36:52;;;;;;;17.80;13.32;;;8.10;99.90;;;;;;5025594;28;20075;-80
2021/12/14 01:39:46;;;;;;;16.88;13.35;;;8.10;99.90;;;;;;5081181;28;20124;-81
2021/12/14 01:42:12;;;;;;;15.75;12.68;;;8.00;99.90;;;;;;5077155;28;20053;-81
2021/12/14 01:44:51;;;;;;;16.02;11.70;;;8.10;99.90;;;;;;5078520;28;20679;-81
2021/12/14 01:47:21;;;;;;;18.50;13.32;;;8.10;99.90;;;;;;5070281;28;20042;-81
2021/12/14 01:49:49;;;;;;;15.73;12.77;;;9.40;99.90;;;;;;5058087;28;20474;-81
2021/12/14 01:52:23;;;;;;;19.15;14.02;;;8.10;99.90;;;;;;5093938;28;20073;-81
2021/12/14 01:54:55;;;;;;;18.88;14.70;;;9.20;99.90;;;;;;5046305;28;20432;-81
2021/12/14 01:57:23;;;;;;;16.45;13.30;;;8.10;99.90;;;;;;5083919;28;20482;-81
2021/12/14 01:59:54;;;;;;;17.60;13.55;;;8.10;99.90;;;;;;5054393;28;20164;-81
2021/12/14 02:02:30;;;;;;;17.55;14.18;;;8.20;99.90;;;;;;5062940;28;20069;-81
2021/12/14 02:04:58;;;;;;;17.83;14.13;;;8.10;99.90;;;;;;5072694;28;20043;-80
2021/12/14 02:07:27;;;;;;;17.90;14.60;;;8.10;99.90;;;;;;5085660;28;20050;-80
2021/12/14 02:09:59;;;;;;;19.73;14.80;;;8.20;99.90;;;;;;5092937;28;20054;-80
2021/12/14 02:12:28;;;;;;;20.23;14.82;;;8.20;99.90;;;;;;5018892;28;20045;-80
2021/12/14 02:15:06;;;;;;;20.23;15.63;;;8.20;99.90;;;;;;5091211;28;20067;-81
2021/12/14 02:17:31;;;;;;;20.55;14.68;;;8.10;99.90;;;;;;5063255;28;20556;-81
2021/12/14 02:19:57;;;;;;;22.58;16.23;;;9.60;99.90;;;;;;5078743;28;20033;-81
2021/12/14 02:22:25;;;;;;;21.55;16.45;;;8.10;99.90;;;;;;5060469;28;20375;-82
2021/12/14 02:24:51;;;;;;;23.42;17.63;;;8.10;99.90;;;;;;5038533;28;20697;-79
2021/12/14 02:27:17;;;;;;;21.15;17.00;;;7.70;99.90;;;;;;5062378;28;20049;-79
2021/12/14 02:29:45;;;;;;;23.27;16.92;;;7.90;99.90;;;;;;5077589;28;20087;-79
2021/12/14 02:32:18;;;;;;;19.95;16.58;;;8.10;99.90;;;;;;5077400;28;20072;-79
2021/12/14 02:34:48;;;;;;;20.90;17.00;;;8.10;99.90;;;;;;5100339;28;20035;-79
2021/12/14 02:37:15;;;;;;;23.30;16.38;;;8.10;99.90;;;;;;5032505;28;20497;-79
2021/12/14 02:42:13;;;;;;;23.30;17.77;;;8.00;99.90;;;;;;5087866;28;20092;-79
2021/12/14 02:44:39;;;;;;;22.27;17.48;;;8.00;99.90;;;;;;5078879;28;20901;-79
2021/12/14 02:47:15;;;;;;;25.48;17.83;;;8.00;99.90;;;;;;5075168;28;20050;-79
2021/12/14 02:49:41;;;;;;;24.42;17.88;;;8.00;99.90;;;;;;5083491;28;20043;-79
2021/12/14 02:52:13;;;;;;;21.27;17.00;;;9.20;99.90;;;;;;5093133;28;20467;-79
2021/12/14 02:54:42;;;;;;;22.88;17.67;;;8.00;99.90;;;;;;5078039;28;20088;-79
2021/12/14 02:57:12;;;;;;;20.88;17.15;;;8.00;99.90;;;;;;5080160;28;20030;-79
2021/12/14 02:59:40;;;;;;;22.52;16.88;;;8.00;99.90;;;;;;5060172;28;20086;-80
2021/12/14 03:02:11;;;;;;;27.15;18.52;;;8.00;99.90;;;;;;5061884;28;20128;-79
2021/12/14 03:04:43;;;;;;;26.50;19.02;;;8.00;99.90;;;;;;5061776;28;20512;-79
2021/12/14 03:07:11;;;;;;;23.23;18.90;;;8.00;99.90;;;;;;5080129;28;20073;-79
2021/12/14 03:12:19;;;;;;;22.23;18.15;;;8.10;99.90;;;;;;5072854;28;20057;-79
2021/12/14 03:14:53;;;;;;;21.77;16.70;;;8.10;99.90;;;;;;5076352;28;20401;-80
2021/12/14 03:17:19;;;;;;;26.67;18.35;;;8.10;99.90;;;;;;5057034;28;20521;-79
2021/12/14 03:20:03;;;;;;;23.10;18.83;;;7.90;99.90;;;;;;5092025;28;20043;-80
2021/12/14 03:22:35;;;;;;;25.70;19.65;;;8.10;99.90;;;;;;5064508;28;20057;-79
2021/12/14 03:25:06;;;;;;;24.25;17.77;;;8.10;99.90;;;;;;5072378;28;20422;-79
2021/12/14 03:27:37;;;;;;;24.58;20.17;;;8.10;99.90;;;;;;5062884;28;20042;-79
2021/12/14 03:30:16;;;;;;;28.85;21.08;;;8.10;99.90;;;;;;5050930;28;20498;-79
2021/12/14 03:32:42;;;;;;;29.25;20.20;;;8.10;99.90;;;;;;5065871;28;20128;-79
2021/12/14 03:35:08;;;;;;;25.58;19.30;;;9.30;99.90;;;;;;5069873;28;20157;-79
2021/12/14 03:37:34;;;;;;;26.08;20.35;;;8.00;99.90;;;;;;5069139;28;20038;-79
2021/12/14 03:40:01;;;;;;;25.20;18.23;;;8.00;99.90;;;;;;5065920;28;20855;-79
2021/12/14 03:42:37;;;;;;;24.88;19.83;;;9.30;99.90;;;;;;5076784;28;20080;-79
2021/12/14 03:45:17;;;;;;;28.48;21.42;;;8.00;99.90;;;;;;5068017;28;20042;-79
2021/12/14 03:47:52;;;;;;;25.60;19.83;;;8.00;99.90;;;;;;5083881;28;20497;-79
2021/12/14 03:50:22;;;;;;;25.85;20.02;;;8.00;99.90;;;;;;5026514;28;20046;-79
2021/12/14 03:52:48;;;;;;;25.90;20.92;;;8.00;99.90;;;;;;5078321;28;20122;-79
2021/12/14 03:55:21;;;;;;;28.73;21.65;;;8.00;99.90;;;;;;5067918;28;20036;-80
2021/12/14 03:57:48;;;;;;;24.58;20.80;;;8.00;99.90;;;;;;5085284;28;20459;-80
2021/12/14 04:00:23;;;;;;;26.20;21.77;;;8.00;99.90;;;;;;5071606;28;20032;-79
2021/12/14 04:02:51;;;;;;;27.65;21.67;;;8.00;99.90;;;;;;5066644;28;20068;-79
2021/12/14 04:05:18;;;;;;;25.75;19.25;;;8.00;99.90;;;;;;5066386;28;20118;-80
2021/12/14 04:07:45;;;;;;;27.98;21.17;;;8.00;99.90;;;;;;5084535;28;20043;-79
2021/12/14 04:10:18;;;;;;;24.17;18.90;;;8.00;99.90;;;;;;5053300;28;20049;-79
2021/12/14 04:12:44;;;;;;;24.13;17.50;;;8.10;99.90;;;;;;5050486;28;20056;-79
2021/12/14 04:15:10;;;;;;;27.83;22.45;;;8.10;99.90;;;;;;5080797;28;20131;-79
2021/12/14 04:17:38;;;;;;;27.05;20.35;;;8.10;99.90;;;;;;5077949;28;20051;-80
2021/12/14 04:20:26;;;;;;;29.67;22.42;;;8.00;99.90;;;;;;5070746;28;20057;-79
2021/12/14 04:22:56;;;;;;;28.17;22.92;;;8.00;99.90;;;;;;5066470;28;20491;-79
2021/12/14 04:25:27;;;;;;;28.48;22.17;;;8.10;99.90;;;;;;5079274;28;20177;-80
2021/12/14 04:27:55;;;;;;;28.58;22.27;;;8.10;99.90;;;;;;5064054;28;20050;-80
2021/12/14 04:30:23;;;;;;;27.83;22.77;;;8.10;99.90;;;;;;5065811;28;20038;-80
2021/12/14 04:32:56;;;;;;;28.05;21.25;;;8.00;99.90;;;;;;5068053;28;20169;-79
2021/12/14 04:35:22;;;;;;;28.67;22.00;;;8.00;99.90;;;;;;5055945;28;20058;-80
2021/12/14 04:37:49;;;;;;;28.83;22.38;;;8.00;99.90;;;;;;5057814;28;20049;-79
2021/12/14 04:51:53;;;;;;;34.90;24.85;;;8.00;99.90;;;;;;5058363;28;20056;-80
2021/12/14 04:51:57;;;;;;;27.67;22.38;;;8.10;99.90;;;;;;5075874;28;20094;-79
2021/12/14 04:54:25;;;;;;;31.17;22.65;;;8.00;99.90;;;;;;5086204;28;20098;-80
2021/12/14 04:56:51;;;;;;;28.88;22.88;;;8.00;99.90;;;;;;5054358;28;20113;-80
2021/12/14 04:59:25;;;;;;;30.15;22.95;;;8.90;99.90;;;;;;5078150;28;20627;-80
2021/12/14 05:01:55;;;;;;;30.58;23.80;;;8.00;99.90;;;;;;5078997;28;20197;-79
2021/12/14 05:04:23;;;;;;;30.65;22.75;;;8.50;99.90;;;;;;5081543;28;20063;-80
2021/12/14 05:06:57;;;;;;;31.92;24.35;;;7.90;99.90;;;;;;5078390;28;20734;-80
2021/12/14 05:09:32;;;;;;;27.60;19.83;;;8.90;99.90;;;;;;5082855;28;20541;-79
2021/12/14 05:12:04;;;;;;;32.70;24.23;;;9.20;99.90;;;;;;5069318;28;20061;-79
2021/12/14 05:14:33;;;;;;;30.35;23.85;;;7.90;99.90;;;;;;5076087;28;20049;-80
2021/12/14 05:17:03;;;;;;;31.70;23.92;;;7.90;99.90;;;;;;5028566;28;20057;-79
2021/12/14 05:19:32;;;;;;;33.35;24.75;;;7.80;99.90;;;;;;5052534;28;20040;-80
2021/12/14 05:22:13;;;;;;;32.42;23.85;;;7.90;99.90;;;;;;5077729;28;20117;-80
2021/12/14 05:24:42;;;;;;;31.25;25.33;;;6.90;99.90;;;;;;5057164;28;20053;-80
2021/12/14 05:27:10;;;;;;;31.55;24.67;;;7.90;99.90;;;;;;5069719;28;20038;-80
2021/12/14 05:29:39;;;;;;;35.50;25.05;;;7.90;99.90;;;;;;5074937;28;20052;-80
2021/12/14 05:32:08;;;;;;;33.17;23.15;;;7.90;99.90;;;;;;5027954;28;20069;-80
2021/12/14 05:34:36;;;;;;;30.45;24.10;;;7.90;99.90;;;;;;5047628;28;20504;-80
2021/12/14 05:37:02;;;;;;;37.60;25.10;;;7.90;99.90;;;;;;5024669;28;20037;-80
2021/12/14 05:39:49;;;;;;;36.60;25.17;;;7.80;99.90;;;;;;5070340;28;20526;-80
2021/12/14 05:45:07;;;;;;;37.17;26.40;;;9.50;99.90;;;;;;5069039;28;20458;-80
2021/12/14 05:47:41;;;;;;;32.83;25.30;;;7.80;99.90;;;;;;5068156;28;20089;-80
2021/12/14 05:50:07;;;;;;;37.40;26.20;;;7.90;99.90;;;;;;5038416;28;20469;-80
2021/12/14 05:52:33;;;;;;;36.33;26.48;;;7.80;99.90;;;;;;5045520;28;20035;-80
2021/12/14 05:54:59;;;;;;;38.35;26.25;;;7.80;99.90;;;;;;5052498;28;20495;-80
2021/12/14 05:57:27;;;;;;;35.47;26.65;;;7.80;99.90;;;;;;5055616;28;20052;-80
2021/12/14 05:59:53;;;;;;;40.58;28.70;;;7.80;99.90;;;;;;5065253;28;20028;-80
2021/12/14 06:02:19;;;;;;;35.95;27.50;;;7.80;99.90;;;;;;5051372;28;20061;-80
2021/12/14 06:04:49;;;;;;;37.72;29.02;;;7.80;99.90;;;;;;5002610;28;20380;-80
2021/12/14 06:07:16;;;;;;;34.88;25.65;;;7.80;99.90;;;;;;5051162;28;20436;-80
2021/12/14 06:09:45;;;;;;;37.75;27.70;;;7.80;99.90;;;;;;5055675;28;20044;-79
2021/12/14 06:12:12;;;;;;;37.90;28.30;;;7.80;99.90;;;;;;5040726;28;20117;-78
2021/12/14 06:14:50;;;;;;;37.40;27.73;;;9.20;99.90;;;;;;5045106;28;20057;-80
2021/12/14 06:17:22;;;;;;;41.80;29.33;;;7.70;99.90;;;;;;5087871;28;20481;-79
2021/12/14 06:20:02;;;;;;;44.60;29.80;;;7.80;99.90;;;;;;5044725;28;20147;-79
2021/12/14 06:22:27;;;;;;;40.15;28.10;;;7.80;99.90;;;;;;5064047;28;20374;-79
2021/12/14 06:24:57;;;;;;;38.13;27.30;;;7.80;99.90;;;;;;5034230;28;20050;-79
2021/12/14 06:27:26;;;;;;;41.88;29.75;;;7.80;99.90;;;;;;5060960;28;20422;-80
2021/12/14 06:29:56;;;;;;;46.63;30.77;;;7.80;99.90;;;;;;5028706;28;20120;-80
2021/12/14 06:32:28;;;;;;;40.58;29.95;;;7.80;99.90;;;;;;5055210;28;20525;-80
2021/12/14 06:35:01;;;;;;;36.25;27.85;;;7.80;99.90;;;;;;5072837;28;20386;-79
2021/12/14 06:38:09;;;;;;;38.00;28.17;;;7.80;99.90;;;;;;5062884;28;20544;-79
2021/12/14 06:40:49;;;;;;;44.55;30.95;;;9.10;99.90;;;;;;5083557;28;20090;-79
2021/12/14 06:43:22;;;;;;;37.70;28.85;;;7.80;99.90;;;;;;5052104;28;20042;-79
2021/12/14 06:45:55;;;;;;;44.67;32.10;;;7.80;99.90;;;;;;5058234;28;20125;-79
2021/12/14 06:48:25;;;;;;;40.70;29.92;;;7.80;99.90;;;;;;5048476;28;20073;-79
2021/12/14 06:51:00;;;;;;;41.42;28.15;;;7.80;99.90;;;;;;5081180;28;20145;-80
2021/12/14 06:53:27;;;;;;;44.72;31.40;;;7.80;99.90;;;;;;5072402;28;20059;-79
2021/12/14 06:55:55;;;;;;;42.75;29.15;;;7.80;99.90;;;;;;5063023;28;20045;-80
2021/12/14 06:58:25;;;;;;;48.70;32.25;;;7.80;99.90;;;;;;5072484;28;20050;-80
2021/12/14 07:01:16;;;;;;;49.10;32.30;;;7.80;99.90;;;;;;5048046;28;20063;-80
2021/12/14 07:03:56;;;;;;;49.13;32.33;;;7.80;99.90;;;;;;5055785;28;20058;-79
2021/12/14 07:06:24;;;;;;;53.08;34.22;;;7.70;99.90;;;;;;5072315;28;20088;-79
2021/12/14 07:08:50;;;;;;;52.80;33.15;;;7.70;99.90;;;;;;5043626;28;20098;-79
2021/12/14 07:11:24;;;;;;;51.00;33.13;;;7.70;99.90;;;;;;5092754;28;20399;-78
2021/12/14 07:13:52;;;;;;;54.15;33.45;;;7.80;99.90;;;;;;5051747;28;20071;-79
2021/12/14 07:16:30;;;;;;;56.15;33.80;;;7.80;99.90;;;;;;5068555;28;20049;-78
2021/12/14 07:18:57;;;;;;;51.15;33.78;;;7.70;99.90;;;;;;5040994;28;20719;-79
2021/12/14 07:21:55;;;;;;;51.00;33.90;;;7.60;99.90;;;;;;5030008;28;20038;-77
2021/12/14 07:24:21;;;;;;;49.13;32.80;;;7.70;99.90;;;;;;4998538;28;20399;-80
2021/12/14 07:27:10;;;;;;;49.03;31.95;;;7.80;99.90;;;;;;5013063;28;20065;-78
2021/12/14 07:29:36;;;;;;;49.08;34.00;;;7.70;99.90;;;;;;5068107;28;20054;-78
2021/12/14 07:32:02;;;;;;;53.03;35.10;;;7.80;99.90;;;;;;4354572;28;10000720;-79
2021/12/14 07:34:28;;;;;;;56.47;34.92;;;7.80;99.90;;;;;;5058733;28;20118;-79
2021/12/14 07:36:54;;;;;;;51.50;34.53;;;6.70;99.90;;;;;;5053611;28;20447;-79
2021/12/14 07:39:20;;;;;;;55.47;35.35;;;7.80;99.90;;;;;;5081477;28;20039;-78
2021/12/14 07:41:49;;;;;;;53.05;35.28;;;7.80;99.90;;;;;;5071715;28;20105;-78
2021/12/14 07:44:23;;;;;;;51.53;35.17;;;7.70;99.90;;;;;;5060464;28;20060;-79
2021/12/14 07:47:03;;;;;;;52.95;34.78;;;7.80;99.90;;;;;;5076327;28;20043;-78
2021/12/14 07:49:34;;;;;;;56.00;35.55;;;7.80;99.90;;;;;;5083810;28;20054;-77
2021/12/14 07:52:08;;;;;;;62.97;35.67;;;7.80;99.90;;;;;;5050633;28;20035;-77
2021/12/14 07:54:48;;;;;;;59.67;36.13;;;7.80;99.90;;;;;;5061212;28;20046;-77
2021/12/14 07:57:27;;;;;;;56.38;35.10;;;7.80;99.90;;;;;;5072903;28;20175;-78
2021/12/14 08:00:07;;;;;;;55.33;36.15;;;7.80;99.90;;;;;;5051609;28;20365;-78
2021/12/14 08:02:39;;;;;;;63.72;36.95;;;7.80;99.90;;;;;;5049541;28;20045;-78
2021/12/14 08:05:15;;;;;;;60.83;36.85;;;7.80;99.90;;;;;;5045573;28;20111;-78
2021/12/14 08:07:45;;;;;;;58.95;36.10;;;7.80;99.90;;;;;;5069418;28;20103;-78
2021/12/14 08:10:17;;;;;;;53.20;34.92;;;7.50;99.90;;;;;;5050694;28;20042;-77
2021/12/14 08:12:47;;;;;;;64.05;38.22;;;7.80;99.90;;;;;;5069489;28;20038;-79
2021/12/14 08:15:26;;;;;;;54.47;35.55;;;7.80;99.90;;;;;;5061670;28;20145;-79
2021/12/14 08:18:09;;;;;;;63.42;37.47;;;7.80;99.90;;;;;;5062684;28;20136;-77
2021/12/14 08:20:44;;;;;;;68.95;44.47;;;7.80;99.90;;;;;;5055560;28;20050;-78
2021/12/14 08:23:11;;;;;;;;;;;7.70;99.90;;;;;;5061535;28;20130;-80
2021/12/14 08:25:40;;;;;;;74.00;39.55;;;8.50;99.90;;;;;;5073456;28;20023;-78
2021/12/14 08:28:07;;;;;;;67.70;38.78;;;7.60;99.90;;;;;;5089897;28;20043;-77
2021/12/14 08:30:35;;;;;;;65.63;37.72;;;7.80;99.90;;;;;;5070717;28;20036;-78
2021/12/14 08:33:02;;;;;;;61.35;37.47;;;7.90;99.90;;;;;;5057728;28;20132;-77
2021/12/14 08:35:28;;;;;;;61.50;37.53;;;7.80;99.90;;;;;;5057752;28;20125;-77
2021/12/14 08:37:59;;;;;;;60.63;37.30;;;7.80;99.90;;;;;;5088451;28;20029;-77
2021/12/14 08:40:29;;;;;;;61.05;37.42;;;8.70;99.90;;;;;;5058187;28;20480;-78
2021/12/14 08:43:09;;;;;;;70.88;40.30;;;7.80;99.90;;;;;;5088202;28;20027;-77
2021/12/14 08:45:50;;;;;;;57.22;36.55;;;7.90;99.90;;;;;;5056689;28;20045;-78
2021/12/14 08:48:29;;;;;;;60.88;37.47;;;7.90;99.90;;;;;;5051148;28;20483;-78
2021/12/14 08:51:04;;;;;;;65.72;36.70;;;7.80;99.90;;;;;;5074886;28;20441;-79
2021/12/14 08:53:35;;;;;;;70.13;38.85;;;7.80;99.90;;;;;;5071790;28;20448;-76
2021/12/14 08:56:07;;;;;;;61.33;36.08;;;7.80;99.90;;;;;;5057042;28;20038;-78
2021/12/14 08:58:34;;;;;;;61.78;36.85;;;7.90;99.90;;;;;;5062974;28;20049;-78
2021/12/14 09:01:08;;;;;;;70.53;40.35;;;7.90;99.90;;;;;;5048288;28;20042;-78
2021/12/14 09:03:40;;;;;;;58.40;36.88;;;7.90;99.90;;;;;;5044565;28;20054;-76
2021/12/14 09:06:14;;;;;;;73.10;39.65;;;7.90;99.90;;;;;;5073027;28;20078;-76
2021/12/14 09:08:43;;;;;;;63.38;38.03;;;7.90;99.90;;;;;;5054846;28;20061;-77
2021/12/14 09:11:11;;;;;;;65.43;38.85;;;7.90;99.90;;;;;;5058182;28;20045;-77
2021/12/14 09:13:37;;;;;;;64.03;37.78;;;7.90;99.90;;;;;;5070786;28;20461;-76
2021/12/14 09:16:08;;;;;;;66.75;39.47;;;7.90;99.90;;;;;;5057571;28;20376;-76
2021/12/14 09:18:40;;;;;;;57.30;37.40;;;7.90;99.90;;;;;;5066045;28;20486;-76
2021/12/14 09:21:11;;;;;;;59.63;35.10;;;7.70;99.90;;;;;;5046949;28;20510;-77
2021/12/14 09:23:44;;;;;;;38.13;23.70;;;7.40;99.90;;;;;;5036545;28;20511;-77
2021/12/14 09:26:16;;;;;;;56.83;35.38;;;9.50;99.90;;;;;;5032993;28;20085;-77
2021/12/14 09:28:42;;;;;;;49.92;32.28;;;7.90;99.90;;;;;;5035085;28;20048;-77
2021/12/14 09:31:13;;;;;;;57.00;35.47;;;9.40;99.90;;;;;;5030772;28;20038;-77
2021/12/14 09:33:40;;;;;;;59.60;36.63;;;8.00;99.90;;;;;;5042636;28;20112;-78
2021/12/14 09:36:12;;;;;;;57.88;35.58;;;7.90;99.90;;;;;;5023632;28;20035;-75
2021/12/14 09:38:41;;;;;;;58.13;36.28;;;8.00;99.90;;;;;;5000143;28;20045;-80
2021/12/14 09:41:10;;;;;;;64.18;37.60;;;8.00;99.90;;;;;;5033743;28;20038;-80
2021/12/14 09:43:37;;;;;;;63.05;39.50;;;8.00;99.90;;;;;;5036432;28;20125;-80
2021/12/14 09:46:06;;;;;;;60.20;35.55;;;8.10;99.90;;;;;;5054197;28;20108;-80
2021/12/14 09:48:38;;;;;;;64.97;37.03;;;7.90;99.90;;;;;;5042384;28;20045;-80
2021/12/14 09:51:11;;;;;;;55.08;34.83;;;8.00;99.90;;;;;;5013736;28;20039;-80
2021/12/14 09:53:42;;;;;;;59.53;36.67;;;7.90;99.90;;;;;;5036113;28;20079;-80
2021/12/14 09:56:12;;;;;;;78.40;40.42;;;8.00;99.90;;;;;;5051784;28;20478;-78
2021/12/14 09:58:45;;;;;;;56.92;36.70;;;8.00;99.90;;;;;;5054954;28;20053;-77
2021/12/14 10:01:22;;;;;;;64.78;38.38;;;8.00;99.90;;;;;;5051342;28;20047;-77
2021/12/14 10:03:52;;;;;;;61.10;37.42;;;8.00;99.90;;;;;;5008178;28;20095;-77
2021/12/14 10:06:24;;;;;;;63.53;37.75;;;8.00;99.90;;;;;;5038559;28;20500;-78
2021/12/14 10:08:57;;;;;;;55.08;35.13;;;8.00;99.90;;;;;;5056217;28;20133;-77
2021/12/14 10:12:17;;;;;;;63.67;37.90;;;8.10;99.90;;;;;;5033574;28;20050;-78
2021/12/14 10:14:31;;;;;;;74.00;39.97;;;8.10;99.90;;;;;;5047811;28;20058;-78
2021/12/14 10:16:56;;;;;;;66.38;36.00;;;8.10;99.90;;;;;;5051321;28;20534;-77
2021/12/14 10:19:27;;;;;;;70.20;37.05;;;9.70;99.90;;;;;;5068064;28;20049;-78
2021/12/14 10:22:05;;;;;;;63.28;35.28;;;8.10;99.90;;;;;;5026290;28;20086;-78
2021/12/14 10:24:32;;;;;;;59.88;34.97;;;8.50;99.90;;;;;;5046088;28;20039;-80
2021/12/14 10:27:11;;;;;;;64.32;36.60;;;8.10;99.90;;;;;;5023263;28;20485;-79
2021/12/14 10:29:37;;;;;;;65.25;35.60;;;8.10;99.90;;;;;;5037400;28;20079;-79
2021/12/14 10:32:13;;;;;;;61.45;35.13;;;7.50;99.90;;;;;;5067648;28;20034;-78
2021/12/14 10:34:45;;;;;;;62.53;34.22;;;8.00;99.90;;;;;;4990653;28;20042;-77
2021/12/14 10:37:20;;;;;;;62.03;34.95;;;8.10;99.90;;;;;;5028747;28;20061;-77
2021/12/14 10:45:29;;;;;;;60.63;33.58;;;8.20;99.90;;;;;;5027944;28;20043;-77
2021/12/14 10:47:55;;;;;;;60.97;33.55;;;8.10;99.90;;;;;;5059090;28;20046;-77
2021/12/14 10:50:24;;;;;;;53.08;32.15;;;8.20;99.90;;;;;;5032607;28;20364;-77
2021/12/14 10:52:50;;;;;;;60.38;34.38;;;9.40;99.90;;;;;;4996021;28;20050;-77
2021/12/14 10:55:21;;;;;;;55.30;31.33;;;9.60;99.90;;;;;;5033836;28;20115;-77
2021/12/14 10:57:47;;;;;;;68.80;34.08;;;9.50;99.90;;;;;;5001060;28;20042;-78
2021/12/14 11:00:39;;;;;;;55.47;29.95;;;8.20;99.90;;;;;;5042435;28;20092;-77
2021/12/14 11:03:11;;;;;;;52.63;32.10;;;8.30;99.90;;;;;;5061883;28;20053;-77
2021/12/14 11:05:38;;;;;;;50.40;31.35;;;8.30;99.90;;;;;;5038352;28;20089;-77
2021/12/14 11:08:18;;;;;;;53.42;30.60;;;8.30;99.90;;;;;;5018954;28;20047;-77
2021/12/14 11:10:44;;;;;;;52.78;30.05;;;8.30;99.90;;;;;;5036732;28;20065;-77
2021/12/14 11:13:12;;;;;;;54.67;31.60;;;9.90;99.90;;;;;;5068486;28;20493;-77
2021/12/14 11:15:47;;;;;;;41.78;25.77;;;8.00;99.90;;;;;;5016665;28;20552;-78
2021/12/14 11:18:17;;;;;;;57.97;29.73;;;9.40;99.90;;;;;;5032327;28;20045;-77
2021/12/14 11:21:03;;;;;;;71.20;34.40;;;8.30;99.90;;;;;;5033776;28;20131;-77
2021/12/14 11:23:40;;;;;;;57.05;31.00;;;8.40;99.90;;;;;;4998859;28;20107;-77
2021/12/14 11:26:23;;;;;;;57.70;31.83;;;8.20;99.90;;;;;;5044370;28;20047;-78
2021/12/14 11:28:54;;;;;;;59.42;30.77;;;8.40;99.90;;;;;;5042116;28;20041;-74
2021/12/14 11:31:31;;;;;;;58.00;30.70;;;8.40;99.90;;;;;;5044735;28;20038;-79
2021/12/14 11:34:09;;;;;;;56.15;29.80;;;9.30;99.90;;;;;;5035127;28;20073;-79
2021/12/14 11:36:58;;;;;;;51.90;27.83;;;8.50;99.90;;;;;;5014935;28;20070;-77
2021/12/14 11:39:32;;;;;;;45.10;26.98;;;8.50;99.90;;;;;;5012647;28;20046;-77
2021/12/14 11:42:01;;;;;;;61.42;29.80;;;8.40;99.90;;;;;;5038807;28;20040;-77
2021/12/14 11:44:50;;;;;;;47.05;26.20;;;8.50;99.90;;;;;;5048845;28;20409;-77
2021/12/14 11:47:42;;;;;;;49.03;26.05;;;8.50;99.90;;;;;;5042647;28;20048;-77
2021/12/14 11:50:43;;;;;;;46.95;26.80;;;8.00;99.90;;;;;;5036523;28;20075;-77
2021/12/14 11:53:13;;;;;;;49.30;25.80;;;8.50;99.90;;;;;;5029792;27;20134;-79
2021/12/14 11:55:51;;;;;;;48.58;26.42;;;7.70;99.90;;;;;;5032566;28;20042;-77
2021/12/14 11:58:19;;;;;;;31.55;17.30;;;8.50;99.90;;;;;;5024961;28;20090;-77
2021/12/14 12:00:57;;;;;;;46.17;25.60;;;8.60;99.90;;;;;;5012498;28;20493;-77
2021/12/14 12:03:37;;;;;;;45.75;23.88;;;8.60;99.90;;;;;;5017693;28;20516;-77
2021/12/14 12:06:14;;;;;;;46.38;24.58;;;8.60;99.90;;;;;;5032241;28;20067;-77
2021/12/14 12:11:40;;;;;;;53.30;27.33;;;8.50;99.90;;;;;;5027665;28;20428;-77
2021/12/14 12:14:24;;;;;;;49.37;25.47;;;8.60;99.90;;;;;;5010497;28;20046;-77
2021/12/14 12:16:53;;;;;;;47.55;23.52;;;8.50;99.90;;;;;;5010781;28;20058;-77
2021/12/14 12:19:24;;;;;;;50.63;25.20;;;8.60;99.90;;;;;;5038494;28;20035;-77
2021/12/14 12:21:51;;;;;;;50.90;27.35;;;8.40;99.90;;;;;;5032587;28;20057;-77
2021/12/14 12:24:41;;;;;;;53.75;26.65;;;8.50;99.90;;;;;;5019602;28;20042;-77
2021/12/14 12:27:29;;;;;;;59.95;28.88;;;8.50;99.90;;;;;;5041334;28;20041;-77
2021/12/14 12:30:09;;;;;;;56.28;27.00;;;7.50;99.90;;;;;;5047076;28;20085;-77
2021/12/14 12:32:36;;;;;;;49.80;25.98;;;8.60;99.90;;;;;;5032235;28;20046;-77
2021/12/14 12:35:37;;;;;;;54.42;26.45;;;8.60;99.90;;;;;;5022954;28;20484;-77
2021/12/14 12:38:26;;;;;;;49.35;23.52;;;8.60;99.90;;;;;;5013267;28;20048;-77
2021/12/14 12:41:27;;;;;;;65.00;28.40;;;8.60;99.90;;;;;;5050114;28;20043;-77
2021/12/14 12:44:07;;;;;;;48.75;25.05;;;8.60;99.90;;;;;;5028678;28;20469;-77
2021/12/14 12:46:42;;;;;;;46.28;23.98;;;8.60;99.90;;;;;;4996334;28;20136;-77
2021/12/14 12:49:18;;;;;;;49.25;22.67;;;8.50;99.90;;;;;;5024496;28;20119;-78
2021/12/14 12:51:53;;;;;;;48.33;22.83;;;8.60;99.90;;;;;;5025790;28;20044;-77
2021/12/14 12:54:21;;;;;;;47.15;22.05;;;9.60;99.90;;;;;;5009642;28;20115;-77
2021/12/14 12:57:09;;;;;;;39.47;19.67;;;8.60;99.90;;;;;;5049044;28;20051;-77
2021/12/14 13:00:08;;;;;;;51.55;23.25;;;8.70;99.90;;;;;;5027862;28;20051;-77
2021/12/14 13:02:48;;;;;;;36.72;20.23;;;8.70;99.90;;;;;;5042425;28;20054;-77
2021/12/14 13:05:37;;;;;;;32.50;17.40;;;8.60;99.90;;;;;;5039702;28;20046;-76
2021/12/14 13:08:17;;;;;;;31.55;17.73;;;8.70;99.90;;;;;;5017045;28;20049;-75
2021/12/14 13:11:14;;;;;;;32.75;17.85;;;8.80;99.90;;;;;;5058828;28;20369;-77
2021/12/14 13:13:49;;;;;;;31.60;17.90;;;8.80;99.90;;;;;;5036323;28;20049;-78
2021/12/14 13:16:20;;;;;;;37.08;18.42;;;8.80;99.90;;;;;;5059781;27;20054;-77
2021/12/14 13:19:10;;;;;;;34.13;18.48;;;8.80;99.90;;;;;;5039868;28;20458;-77
2021/12/14 13:21:57;;;;;;;32.80;17.48;;;8.80;99.90;;;;;;4986364;28;20053;-79
2021/12/14 13:24:27;;;;;;;32.28;17.80;;;10.00;99.90;;;;;;5011949;28;20410;-78
2021/12/14 13:27:21;;;;;;;37.95;19.80;;;8.80;99.90;;;;;;5034306;28;20040;-78
2021/12/14 13:29:59;;;;;;;33.15;17.65;;;8.70;99.90;;;;;;5030295;28;20514;-78
2021/12/14 13:32:27;;;;;;;39.90;20.63;;;10.70;99.90;;;;;;5028808;28;20047;-78
2021/12/14 13:35:12;;;;;;;40.15;20.83;;;8.80;99.90;;;;;;5070376;28;20043;-78
2021/12/14 13:37:43;;;;;;;44.08;22.52;;;8.90;99.90;;;;;;5062729;28;20082;-78
2021/12/14 13:40:17;;;;;;;40.83;21.80;;;8.70;99.90;;;;;;5044967;28;20044;-78
2021/12/14 13:43:00;;;;;;;38.13;19.30;;;8.90;99.90;;;;;;5015216;28;20041;-78
2021/12/14 13:45:31;;;;;;;44.28;23.83;;;8.80;99.90;;;;;;5013611;28;20047;-76